Time;durP1;ratioP1;P1;durP2;ratioP2;P2;SDS_P1;SDS_P2;PMS_P1;PMS_P2;Temp;Humidity;BMP_temperature;BMP_pressure;BME280_temperature;BME280_humidity;BME280_pressure;Samples;Min_cycle;Max_cycle;Signal;HPM_P1;HPM_P2
2021/12/24 00:02:04;;;;;;;6.85;1.38;;;23.20;99.90;;;;;;5046777;28;20035;-68
2021/12/24 00:04:31;;;;;;;3.65;0.85;;;23.20;99.90;;;;;;5044527;28;20481;-68
2021/12/24 00:06:58;;;;;;;3.63;1.00;;;23.30;99.90;;;;;;5055558;28;20119;-69
2021/12/24 00:09:31;;;;;;;5.97;1.50;;;23.30;99.90;;;;;;5042116;28;20381;-69
2021/12/24 00:12:02;;;;;;;6.25;1.35;;;23.20;99.90;;;;;;5056658;28;20095;-68
2021/12/24 00:14:31;;;;;;;5.10;1.40;;;23.20;99.90;;;;;;5052300;28;20083;-69
2021/12/24 00:17:03;;;;;;;8.48;1.67;;;23.20;99.90;;;;;;5050854;28;20082;-69
2021/12/24 00:22:26;;;;;;;6.72;1.40;;;23.10;99.90;;;;;;5051287;28;20159;-69
2021/12/24 00:36:12;;;;;;;13.15;1.85;;;22.70;99.90;;;;;;5038015;28;20043;-70
2021/12/24 00:38:39;;;;;;;3.78;0.95;;;22.80;99.90;;;;;;5063710;28;20048;-70
2021/12/24 00:41:07;;;;;;;2.83;1.00;;;22.80;99.90;;;;;;5038497;28;20033;-69
2021/12/24 00:43:34;;;;;;;4.93;1.48;;;22.70;99.90;;;;;;5035382;28;20025;-69
2021/12/24 00:46:01;;;;;;;6.10;1.55;;;22.70;99.90;;;;;;5037102;28;20040;-69
2021/12/24 00:48:28;;;;;;;6.05;1.38;;;22.70;99.90;;;;;;5055222;28;20036;-69
2021/12/24 00:56:05;;;;;;;6.90;1.20;;;22.70;99.90;;;;;;5053157;28;20036;-69
2021/12/24 00:58:33;;;;;;;8.85;1.80;;;22.70;99.90;;;;;;5054869;28;20025;-69
2021/12/24 01:01:00;;;;;;;6.80;1.35;;;22.70;99.90;;;;;;5052070;28;20067;-69
2021/12/24 01:03:28;;;;;;;10.13;1.35;;;22.80;99.90;;;;;;5053640;28;20099;-69
2021/12/24 01:05:55;;;;;;;5.80;1.25;;;22.90;99.90;;;;;;5039169;28;20037;-70
2021/12/24 01:08:23;;;;;;;6.45;1.48;;;23.00;99.90;;;;;;5043099;28;20025;-70
2021/12/24 01:10:56;;;;;;;5.07;1.05;;;23.10;99.90;;;;;;5052685;28;20036;-70
2021/12/24 01:13:25;;;;;;;10.82;2.17;;;23.10;99.90;;;;;;5051941;28;20128;-70
2021/12/24 01:22:50;;;;;;;4.65;1.58;;;23.40;99.90;;;;;;5011599;28;20038;-69
2021/12/24 01:24:28;;;;;;;4.88;1.48;;;24.00;99.90;;;;;;5048727;28;20501;-69
2021/12/24 01:42:55;;;;;;;5.00;1.38;;;24.20;99.90;;;;;;5035546;28;20030;-70
2021/12/24 01:45:30;;;;;;;9.38;1.95;;;24.30;99.90;;;;;;5050090;28;20486;-69
2021/12/24 01:48:00;;;;;;;8.40;2.92;;;24.40;99.90;;;;;;5047656;28;20445;-70
2021/12/24 01:50:31;;;;;;;7.63;2.30;;;25.00;99.90;;;;;;5034081;28;20025;-70
2021/12/24 01:52:59;;;;;;;5.60;1.80;;;25.00;99.90;;;;;;5050912;28;20049;-70
2021/12/24 01:55:27;;;;;;;5.93;1.73;;;25.30;99.90;;;;;;5054011;28;20072;-68
2021/12/24 01:57:58;;;;;;;6.20;1.70;;;25.60;99.90;;;;;;5051259;28;20417;-70
2021/12/24 02:00:32;;;;;;;10.70;1.92;;;25.60;99.90;;;;;;5054826;28;20024;-69
2021/12/24 02:03:00;;;;;;;5.90;1.90;;;25.00;99.90;;;;;;5052273;28;20063;-71
2021/12/24 02:05:29;;;;;;;7.32;1.65;;;25.20;99.90;;;;;;5052606;28;20039;-70
2021/12/24 02:07:57;;;;;;;6.07;1.92;;;25.70;99.90;;;;;;5052879;28;20031;-70
2021/12/24 02:10:24;;;;;;;9.82;1.90;;;26.10;99.90;;;;;;5054971;28;20385;-71
2021/12/24 02:12:54;;;;;;;5.53;1.70;;;26.00;99.90;;;;;;5051708;28;20056;-70
2021/12/24 02:15:42;;;;;;;8.23;2.55;;;26.10;99.90;;;;;;5053255;28;20040;-69
2021/12/24 02:29:12;;;;;;;6.68;1.85;;;25.90;99.90;;;;;;5047677;28;20539;-70
2021/12/24 02:31:40;;;;;;;7.50;1.67;;;26.10;99.90;;;;;;5051429;28;20393;-70
2021/12/24 02:34:07;;;;;;;3.00;1.58;;;26.60;99.90;;;;;;5053169;28;20064;-69
2021/12/24 02:36:34;;;;;;;7.30;1.85;;;26.70;99.90;;;;;;5049343;28;20033;-67
2021/12/24 02:39:03;;;;;;;6.10;1.85;;;26.20;99.90;;;;;;5053758;28;20056;-67
2021/12/24 02:41:30;;;;;;;5.93;1.67;;;25.90;99.90;;;;;;5051028;28;20021;-69
2021/12/24 02:43:57;;;;;;;4.53;1.60;;;25.90;99.90;;;;;;5048027;28;20375;-69
2021/12/24 02:46:35;;;;;;;6.95;1.98;;;26.20;99.90;;;;;;5040444;28;20451;-69
2021/12/24 02:49:11;;;;;;;6.97;2.05;;;26.40;99.90;;;;;;5043749;28;20051;-68
2021/12/24 02:54:26;;;;;;;6.90;2.08;;;27.00;99.90;;;;;;5052874;28;20036;-68
2021/12/24 02:56:59;;;;;;;7.57;2.00;;;26.80;99.90;;;;;;5045985;28;20486;-69
2021/12/24 02:59:27;;;;;;;8.45;2.05;;;26.60;99.90;;;;;;5052330;28;20024;-69
2021/12/24 03:01:56;;;;;;;5.97;1.52;;;26.40;99.90;;;;;;5049861;28;20052;-70
2021/12/24 03:04:24;;;;;;;6.13;2.30;;;26.30;99.90;;;;;;5049694;28;20025;-69
2021/12/24 03:06:53;;;;;;;7.18;1.85;;;26.30;99.90;;;;;;5047392;28;20056;-70
2021/12/24 03:09:21;;;;;;;4.18;1.58;;;26.50;99.90;;;;;;5060372;28;20032;-69
2021/12/24 03:11:51;;;;;;;5.57;1.95;;;26.40;99.90;;;;;;5067838;28;20032;-70
2021/12/24 03:14:19;;;;;;;5.53;1.58;;;26.60;99.90;;;;;;5053646;28;20064;-70
2021/12/24 03:16:54;;;;;;;6.65;1.70;;;26.90;99.90;;;;;;5044466;28;20037;-70
2021/12/24 03:19:25;;;;;;;5.63;1.98;;;27.20;99.90;;;;;;5057596;28;20016;-69
2021/12/24 03:22:10;;;;;;;4.10;1.63;;;26.60;99.90;;;;;;5058706;28;20089;-69
2021/12/24 03:24:36;;;;;;;;;;;26.70;99.90;;;;;;5064987;28;20029;-69
2021/12/24 03:27:06;;;;;;;6.28;2.33;;;26.70;99.90;;;;;;5053803;28;19910;-68
2021/12/24 03:29:35;;;;;;;6.40;2.05;;;26.60;99.90;;;;;;5053640;28;20074;-69
2021/12/24 03:32:03;;;;;;;6.43;2.40;;;26.90;99.90;;;;;;5051544;28;20558;-68
2021/12/24 03:34:31;;;;;;;5.40;1.48;;;26.80;99.90;;;;;;5048866;28;20650;-69
2021/12/24 03:36:58;;;;;;;4.35;1.90;;;27.00;99.90;;;;;;5049826;28;20032;-69
2021/12/24 03:39:26;;;;;;;4.55;1.60;;;27.00;99.90;;;;;;5051576;28;20057;-69
2021/12/24 03:41:53;;;;;;;5.47;1.63;;;27.10;99.90;;;;;;5050784;28;20021;-68
2021/12/24 03:44:29;;;;;;;7.80;2.40;;;27.00;99.90;;;;;;5049942;28;20021;-69
2021/12/24 03:47:17;;;;;;;5.78;1.77;;;27.10;99.90;;;;;;5050821;28;20041;-69
2021/12/24 03:54:57;;;;;;;8.82;2.70;;;26.60;99.90;;;;;;5053198;28;20029;-69
2021/12/24 03:57:31;;;;;;;7.20;1.83;;;26.40;99.90;;;;;;5054858;28;20044;-70
2021/12/24 04:00:04;;;;;;;7.05;2.00;;;26.10;99.90;;;;;;5054781;28;20104;-69
2021/12/24 04:02:31;;;;;;;8.60;2.38;;;26.00;99.90;;;;;;5054285;28;20029;-70
2021/12/24 04:04:59;;;;;;;7.72;2.47;;;25.90;99.90;;;;;;5053783;28;20413;-69
2021/12/24 04:07:26;;;;;;;7.28;1.60;;;26.00;99.90;;;;;;5050258;28;20617;-69
2021/12/24 04:10:05;;;;;;;6.40;1.98;;;26.10;99.90;;;;;;5049845;28;20109;-69
2021/12/24 04:12:35;;;;;;;7.63;2.00;;;26.00;99.90;;;;;;5049664;28;20036;-68
2021/12/24 04:15:03;;;;;;;5.95;2.05;;;26.00;99.90;;;;;;5056224;28;20041;-69
2021/12/24 04:17:32;;;;;;;7.57;1.73;;;26.10;99.90;;;;;;5043696;28;20029;-70
2021/12/24 04:25:31;;;;;;;4.97;2.03;;;26.10;99.90;;;;;;5055701;28;20087;-70
2021/12/24 04:27:59;;;;;;;8.88;2.20;;;25.90;99.90;;;;;;5052427;28;20036;-69
2021/12/24 04:30:35;;;;;;;10.40;2.38;;;25.80;99.90;;;;;;5054888;28;20079;-70
2021/12/24 04:33:10;;;;;;;8.63;2.40;;;25.90;99.90;;;;;;5053415;28;20083;-70
2021/12/24 04:35:42;;;;;;;6.85;2.08;;;26.00;99.90;;;;;;5052488;28;20029;-70
2021/12/24 04:52:03;;;;;;;5.00;1.90;;;26.00;99.90;;;;;;5052052;28;20063;-70
2021/12/24 05:03:06;;;;;;;7.00;1.45;;;26.10;99.90;;;;;;5051632;28;20114;-68
2021/12/24 05:08:18;;;;;;;11.13;2.10;;;25.60;99.90;;;;;;5053829;28;20021;-69
2021/12/24 05:10:46;;;;;;;5.53;1.85;;;25.60;99.90;;;;;;5053901;28;20028;-69
2021/12/24 05:13:17;;;;;;;8.40;2.05;;;25.70;99.90;;;;;;5038903;28;20034;-69
2021/12/24 05:15:48;;;;;;;8.48;2.33;;;25.60;99.90;;;;;;5033679;28;20084;-68
2021/12/24 05:23:31;;;;;;;7.78;2.20;;;25.40;99.90;;;;;;5040201;28;20036;-69
2021/12/24 05:25:58;;;;;;;6.53;2.03;;;25.60;99.90;;;;;;5055353;28;20385;-69
2021/12/24 05:28:26;;;;;;;10.75;3.15;;;25.70;99.90;;;;;;5039506;28;20430;-68
2021/12/24 05:30:53;;;;;;;9.00;2.20;;;25.40;99.90;;;;;;5065980;28;20033;-69
2021/12/24 05:33:24;;;;;;;11.50;2.13;;;25.40;99.90;;;;;;5049186;28;20021;-70
2021/12/24 05:35:51;;;;;;;10.45;2.38;;;25.60;99.90;;;;;;5052469;28;20398;-69
2021/12/24 05:38:18;;;;;;;10.23;2.25;;;25.30;99.90;;;;;;5052172;28;20116;-69
2021/12/24 05:40:46;;;;;;;6.80;2.05;;;25.40;99.90;;;;;;5053306;28;20021;-67
2021/12/24 05:43:13;;;;;;;7.35;1.95;;;25.50;99.90;;;;;;5052485;28;20025;-67
2021/12/24 05:45:41;;;;;;;7.97;2.30;;;25.80;99.90;;;;;;5053652;28;20025;-67
2021/12/24 05:48:09;;;;;;;10.95;2.20;;;25.70;99.90;;;;;;5052861;28;20049;-67
2021/12/24 05:50:36;;;;;;;12.18;2.60;;;25.60;99.90;;;;;;5053896;28;20035;-67
2021/12/24 05:53:03;;;;;;;9.63;2.33;;;25.50;99.90;;;;;;5048457;28;20025;-67
2021/12/24 05:55:31;;;;;;;9.05;2.03;;;25.50;99.90;;;;;;5052166;28;20037;-68
2021/12/24 05:57:58;;;;;;;12.07;2.33;;;25.40;99.90;;;;;;5052185;28;20021;-68
2021/12/24 06:00:26;;;;;;;7.47;2.35;;;25.50;99.90;;;;;;5053823;28;20032;-68
2021/12/24 06:02:53;;;;;;;9.52;2.88;;;25.20;99.90;;;;;;5049394;28;20028;-67
2021/12/24 06:05:20;;;;;;;12.68;2.75;;;25.30;99.90;;;;;;5043412;28;20094;-67
2021/12/24 06:07:48;;;;;;;8.57;2.38;;;25.50;99.90;;;;;;5050416;28;20032;-68
2021/12/24 06:10:15;;;;;;;9.88;2.67;;;25.30;99.90;;;;;;5050306;28;20017;-67
2021/12/24 06:12:42;;;;;;;7.88;2.03;;;25.30;99.90;;;;;;5047216;28;20033;-68
2021/12/24 06:15:10;;;;;;;14.40;2.60;;;25.10;99.90;;;;;;5053148;28;20025;-68
2021/12/24 06:17:39;;;;;;;12.38;2.75;;;24.90;99.90;;;;;;5036300;28;20122;-68
2021/12/24 06:20:12;;;;;;;12.23;3.10;;;25.00;99.90;;;;;;5048298;28;20025;-68
2021/12/24 06:22:39;;;;;;;11.37;2.63;;;24.90;99.90;;;;;;5051190;28;20029;-68
2021/12/24 06:25:07;;;;;;;11.95;2.75;;;25.00;99.90;;;;;;5050159;28;20769;-66
2021/12/24 06:27:34;;;;;;;13.70;3.20;;;24.90;99.90;;;;;;5053469;28;20037;-67
2021/12/24 06:30:03;;;;;;;13.57;2.55;;;24.70;99.90;;;;;;5053236;28;20080;-67
2021/12/24 06:32:30;;;;;;;9.30;2.40;;;24.90;99.90;;;;;;5052102;28;20037;-67
2021/12/24 06:34:57;;;;;;;8.55;2.13;;;24.90;99.90;;;;;;5051929;28;20134;-67
2021/12/24 06:37:25;;;;;;;11.95;2.50;;;25.10;99.90;;;;;;5052196;28;20032;-66
2021/12/24 06:39:54;;;;;;;12.18;3.05;;;25.40;99.90;;;;;;5036138;28;20669;-67
2021/12/24 06:42:22;;;;;;;9.18;2.70;;;25.60;99.90;;;;;;5050499;28;20028;-67
2021/12/24 06:44:50;;;;;;;10.40;2.17;;;25.60;99.90;;;;;;5052787;28;20048;-66
2021/12/24 06:47:17;;;;;;;10.90;2.58;;;25.90;99.90;;;;;;5055824;28;20519;-67
2021/12/24 06:49:44;;;;;;;10.77;2.20;;;25.70;99.90;;;;;;5060969;28;20079;-67
2021/12/24 06:52:11;;;;;;;12.00;3.35;;;25.30;99.90;;;;;;5052838;28;20504;-66
2021/12/24 06:54:39;;;;;;;13.85;3.33;;;25.60;99.90;;;;;;5056214;28;20055;-66
2021/12/24 06:57:12;;;;;;;9.77;2.55;;;25.60;99.90;;;;;;5053968;28;20036;-67
2021/12/24 06:59:40;;;;;;;10.18;2.65;;;25.30;99.90;;;;;;5048773;28;20026;-67
2021/12/24 07:02:07;;;;;;;7.05;3.00;;;24.90;99.90;;;;;;5037900;28;20032;-66
2021/12/24 07:04:34;;;;;;;9.85;2.90;;;24.50;99.90;;;;;;5057412;28;20043;-67
2021/12/24 07:07:02;;;;;;;9.88;2.70;;;24.60;99.90;;;;;;5055794;28;20055;-66
2021/12/24 07:09:29;;;;;;;11.65;3.17;;;24.60;99.90;;;;;;5053445;28;20033;-67
2021/12/24 07:11:56;;;;;;;11.38;3.08;;;24.50;99.90;;;;;;5056426;28;20036;-67
2021/12/24 07:14:24;;;;;;;8.88;2.90;;;24.30;99.90;;;;;;5054189;28;20041;-67
2021/12/24 07:16:52;;;;;;;11.15;2.42;;;24.30;99.90;;;;;;5055309;28;20515;-67
2021/12/24 07:19:19;;;;;;;9.18;2.50;;;24.30;99.90;;;;;;5057234;28;20049;-67
2021/12/24 07:21:47;;;;;;;9.05;2.30;;;24.20;99.90;;;;;;5058350;28;20033;-67
2021/12/24 07:24:14;;;;;;;12.65;2.47;;;24.80;99.90;;;;;;5059584;28;20445;-67
2021/12/24 07:26:41;;;;;;;14.90;3.35;;;24.90;99.90;;;;;;5061055;28;20036;-66
2021/12/24 07:29:09;;;;;;;10.02;2.95;;;24.40;99.90;;;;;;5067297;28;20049;-66
2021/12/24 07:31:36;;;;;;;11.30;2.97;;;24.30;99.90;;;;;;5066955;28;20036;-65
2021/12/24 07:34:03;;;;;;;13.93;3.50;;;24.30;99.90;;;;;;5065624;28;20044;-65
2021/12/24 07:36:31;;;;;;;13.25;2.95;;;24.20;99.90;;;;;;5067153;28;20040;-65
2021/12/24 07:38:58;;;;;;;7.95;2.75;;;24.20;99.90;;;;;;5046269;28;20036;-64
2021/12/24 07:41:26;;;;;;;13.50;3.25;;;24.20;99.90;;;;;;5062333;28;20022;-65
2021/12/24 07:43:53;;;;;;;11.57;2.90;;;24.10;99.90;;;;;;5060288;28;20159;-65
2021/12/24 07:46:23;;;;;;;12.52;3.28;;;24.10;99.90;;;;;;5056516;28;20401;-65
2021/12/24 07:48:52;;;;;;;10.82;4.07;;;24.10;99.90;;;;;;5059574;28;20021;-66
2021/12/24 07:54:05;;;;;;;17.60;3.92;;;23.80;99.90;;;;;;5049535;28;20039;-65
2021/12/24 07:56:33;;;;;;;10.70;3.58;;;23.80;99.90;;;;;;5053552;28;20619;-65
2021/12/24 07:59:02;;;;;;;13.75;3.20;;;23.80;99.90;;;;;;5052132;28;20521;-65
2021/12/24 08:01:29;;;;;;;6.95;2.80;;;23.80;99.90;;;;;;5055282;28;20024;-65
2021/12/24 08:03:57;;;;;;;14.02;3.67;;;23.80;99.90;;;;;;5054636;28;20017;-65
2021/12/24 08:06:26;;;;;;;11.35;3.85;;;23.80;99.90;;;;;;5053699;28;20492;-65
2021/12/24 08:08:53;;;;;;;10.88;3.03;;;23.80;99.90;;;;;;5052856;28;20108;-65
2021/12/24 08:11:20;;;;;;;16.40;3.22;;;23.80;99.90;;;;;;5052565;28;20104;-65
2021/12/24 08:13:47;;;;;;;15.93;4.05;;;23.90;99.90;;;;;;5047007;28;20051;-65
2021/12/24 08:16:15;;;;;;;20.23;4.45;;;23.80;99.90;;;;;;5053394;28;20029;-64
2021/12/24 08:18:45;;;;;;;13.68;3.55;;;23.70;99.90;;;;;;5062254;28;20080;-64
2021/12/24 08:21:13;;;;;;;11.15;3.50;;;23.70;99.90;;;;;;5061549;28;20021;-66
2021/12/24 08:23:41;;;;;;;14.95;3.97;;;23.70;99.90;;;;;;5051741;28;20029;-66
2021/12/24 08:26:08;;;;;;;11.57;3.25;;;23.70;99.90;;;;;;5049673;28;20079;-67
2021/12/24 08:28:35;;;;;;;11.90;2.85;;;23.70;99.90;;;;;;5042479;28;20024;-68
2021/12/24 08:31:03;;;;;;;12.65;3.33;;;23.70;99.90;;;;;;5050240;28;20108;-68
2021/12/24 08:33:33;;;;;;;12.43;3.28;;;23.80;99.90;;;;;;5051647;28;20052;-68
2021/12/24 08:36:01;;;;;;;11.65;3.33;;;23.80;99.90;;;;;;5050108;28;20049;-68
2021/12/24 08:38:29;;;;;;;14.15;3.58;;;23.60;99.90;;;;;;5051872;28;20101;-67
2021/12/24 08:40:56;;;;;;;11.25;4.20;;;23.60;99.90;;;;;;5051646;28;20075;-68
2021/12/24 08:43:24;;;;;;;17.02;4.70;;;23.50;99.90;;;;;;5050065;28;20021;-67
2021/12/24 08:45:51;;;;;;;14.43;3.70;;;23.60;99.90;;;;;;5050051;28;20013;-67
2021/12/24 08:48:18;;;;;;;17.50;4.13;;;23.60;99.90;;;;;;5051026;28;20509;-66
2021/12/24 08:50:46;;;;;;;17.10;4.72;;;23.40;99.90;;;;;;5054878;28;20104;-67
2021/12/24 08:53:13;;;;;;;12.30;4.20;;;23.40;99.90;;;;;;5054518;28;20469;-67
2021/12/24 08:55:42;;;;;;;15.88;3.47;;;23.40;99.90;;;;;;5053337;28;20068;-67
2021/12/24 08:58:09;;;;;;;10.95;3.70;;;23.40;99.90;;;;;;5047025;28;20036;-68
2021/12/24 09:00:37;;;;;;;17.15;3.65;;;23.40;99.90;;;;;;5054844;28;20556;-68
2021/12/24 09:03:05;;;;;;;15.63;4.07;;;23.40;99.90;;;;;;5053631;28;20044;-68
2021/12/24 09:05:33;;;;;;;11.55;3.72;;;23.40;99.90;;;;;;5053151;28;20067;-68
2021/12/24 09:08:01;;;;;;;13.02;4.07;;;23.40;99.90;;;;;;5054263;28;20021;-68
2021/12/24 09:10:29;;;;;;;11.75;3.50;;;23.40;99.90;;;;;;5053574;28;20037;-68
2021/12/24 09:12:56;;;;;;;15.32;4.07;;;23.40;99.90;;;;;;5054245;28;20057;-68
2021/12/24 09:15:30;;;;;;;17.88;4.43;;;23.30;99.90;;;;;;5053698;28;20033;-68
2021/12/24 09:17:59;;;;;;;16.40;4.63;;;23.30;99.90;;;;;;5054860;28;20037;-68
2021/12/24 09:20:33;;;;;;;8.23;3.70;;;23.20;99.90;;;;;;5053203;28;20040;-67
2021/12/24 09:23:02;;;;;;;14.63;4.50;;;23.20;99.90;;;;;;5053040;28;20067;-68
2021/12/24 09:25:30;;;;;;;16.70;4.90;;;23.20;99.90;;;;;;5052562;28;20041;-68
2021/12/24 09:27:59;;;;;;;13.70;3.83;;;23.20;99.90;;;;;;5053307;28;20493;-67
2021/12/24 09:30:29;;;;;;;17.48;3.88;;;23.10;99.90;;;;;;5054981;28;20386;-68
2021/12/24 09:32:56;;;;;;;16.27;4.45;;;23.10;99.90;;;;;;5052670;28;20043;-68
2021/12/24 09:35:25;;;;;;;13.55;4.47;;;23.10;99.90;;;;;;5053885;28;20036;-68
2021/12/24 09:37:54;;;;;;;12.63;3.50;;;23.10;99.90;;;;;;5050781;28;20025;-68
2021/12/24 09:40:22;;;;;;;17.48;4.43;;;23.10;99.90;;;;;;5044085;28;20641;-68
2021/12/24 09:42:50;;;;;;;13.98;3.65;;;23.00;99.90;;;;;;5052968;28;20063;-67
2021/12/24 09:45:18;;;;;;;16.45;5.18;;;23.00;99.90;;;;;;5053754;28;20120;-68
2021/12/24 09:47:46;;;;;;;19.13;4.65;;;23.00;99.90;;;;;;5053530;28;20063;-67
2021/12/24 09:50:19;;;;;;;13.10;3.78;;;22.90;99.90;;;;;;5061514;28;20025;-67
2021/12/24 09:52:49;;;;;;;20.60;4.43;;;22.90;99.90;;;;;;5052487;28;20108;-67
2021/12/24 09:55:25;;;;;;;16.20;4.93;;;22.90;99.90;;;;;;5053155;28;20033;-69
2021/12/24 09:57:52;;;;;;;17.40;4.72;;;22.90;99.90;;;;;;5052110;28;20485;-67
2021/12/24 10:00:22;;;;;;;19.55;4.60;;;22.80;99.90;;;;;;5053674;28;20107;-67
2021/12/24 10:02:53;;;;;;;21.08;4.90;;;22.70;99.90;;;;;;5053540;28;20029;-68
2021/12/24 10:05:31;;;;;;;18.10;5.57;;;22.70;99.90;;;;;;5051475;28;20025;-68
2021/12/24 10:08:19;;;;;;;19.65;3.72;;;22.60;99.90;;;;;;5053745;28;20043;-68
2021/12/24 10:10:50;;;;;;;15.30;3.83;;;22.60;99.90;;;;;;5052504;28;20032;-69
2021/12/24 10:13:31;;;;;;;24.08;4.72;;;22.60;99.90;;;;;;5053373;28;20040;-67
2021/12/24 10:16:22;;;;;;;16.95;4.03;;;22.60;99.90;;;;;;5049453;28;20028;-67
2021/12/24 10:18:55;;;;;;;15.75;3.67;;;22.60;99.90;;;;;;5051651;28;20037;-67
2021/12/24 10:21:28;;;;;;;17.50;3.67;;;22.50;99.90;;;;;;5053292;28;20096;-67
2021/12/24 10:24:04;;;;;;;23.70;5.32;;;22.50;99.90;;;;;;5054420;28;20055;-68
2021/12/24 10:26:53;;;;;;;14.88;5.15;;;22.50;99.90;;;;;;5048751;28;20436;-68
2021/12/24 10:29:38;;;;;;;18.77;5.18;;;22.50;99.90;;;;;;5051543;28;20021;-67
2021/12/24 10:32:20;;;;;;;17.85;4.13;;;22.50;99.90;;;;;;5065803;28;20044;-67
2021/12/24 10:34:48;;;;;;;21.92;4.72;;;22.50;99.90;;;;;;5050900;28;20040;-68
2021/12/24 10:37:23;;;;;;;17.52;4.15;;;22.50;99.90;;;;;;5052591;28;20127;-68
2021/12/24 10:39:57;;;;;;;15.70;4.22;;;22.50;99.90;;;;;;5055296;28;20436;-67
2021/12/24 10:42:38;;;;;;;23.83;4.35;;;22.50;99.90;;;;;;5052503;28;20393;-67
2021/12/24 10:45:22;;;;;;;16.98;5.13;;;22.40;99.90;;;;;;5049318;28;20037;-67
2021/12/24 10:47:49;;;;;;;24.88;5.85;;;22.40;99.90;;;;;;5052660;28;20053;-67
2021/12/24 10:55:31;;;;;;;21.73;5.65;;;22.50;99.90;;;;;;5052283;28;20553;-67
2021/12/24 10:58:00;;;;;;;18.45;4.65;;;22.40;99.90;;;;;;5052442;28;20021;-69
2021/12/24 11:00:53;;;;;;;23.40;5.32;;;22.40;99.90;;;;;;5048856;28;20024;-69
2021/12/24 11:03:23;;;;;;;23.30;5.05;;;22.40;99.90;;;;;;5046888;28;20036;-68
2021/12/24 11:06:07;;;;;;;18.15;4.88;;;22.40;99.90;;;;;;5052588;28;20029;-68
2021/12/24 11:08:35;;;;;;;18.40;4.43;;;22.50;99.90;;;;;;5051319;28;20052;-68
2021/12/24 11:11:06;;;;;;;22.98;4.90;;;22.50;99.90;;;;;;5050689;28;20102;-67
2021/12/24 11:13:42;;;;;;;17.92;5.72;;;22.50;99.90;;;;;;5052907;28;20061;-68
2021/12/24 11:16:12;;;;;;;18.90;4.78;;;22.50;99.90;;;;;;5051869;28;20045;-67
2021/12/24 11:18:44;;;;;;;20.70;4.47;;;22.50;99.90;;;;;;5053826;28;20021;-68
2021/12/24 11:21:18;;;;;;;16.05;4.03;;;22.40;99.90;;;;;;5052967;28;20092;-67
2021/12/24 11:23:45;;;;;;;16.73;4.40;;;22.40;99.90;;;;;;5050665;28;20040;-67
2021/12/24 11:26:18;;;;;;;18.83;5.28;;;22.50;99.90;;;;;;5047239;28;20037;-67
2021/12/24 11:28:46;;;;;;;23.52;5.30;;;22.50;99.90;;;;;;5047207;28;20044;-67
2021/12/24 11:31:33;;;;;;;21.17;4.47;;;22.50;99.90;;;;;;5045898;28;20017;-68
2021/12/24 11:34:01;;;;;;;22.70;4.60;;;22.50;99.90;;;;;;5056726;28;20036;-67
2021/12/24 11:36:30;;;;;;;16.13;4.40;;;22.50;99.90;;;;;;5050415;28;20037;-67
2021/12/24 11:39:00;;;;;;;18.02;4.20;;;22.50;99.90;;;;;;5051215;28;20017;-68
2021/12/24 11:41:31;;;;;;;16.70;4.50;;;22.50;99.90;;;;;;5051083;28;20108;-68
2021/12/24 11:44:02;;;;;;;22.92;5.03;;;22.50;99.90;;;;;;5063023;28;20509;-68
2021/12/24 11:46:29;;;;;;;16.35;4.50;;;22.40;99.90;;;;;;5049691;28;20056;-68
2021/12/24 11:48:57;;;;;;;23.27;5.63;;;22.50;99.90;;;;;;5052639;28;20021;-68
2021/12/24 11:51:40;;;;;;;20.45;4.50;;;22.40;99.90;;;;;;5047899;28;20385;-68
2021/12/24 11:54:08;;;;;;;21.60;5.50;;;22.40;99.90;;;;;;5048654;28;20021;-68
2021/12/24 11:56:51;;;;;;;22.35;5.88;;;22.50;99.90;;;;;;5049326;28;20040;-68
2021/12/24 11:59:36;;;;;;;28.40;5.82;;;22.50;99.90;;;;;;5064932;28;20694;-68
2021/12/24 12:02:03;;;;;;;23.55;4.65;;;22.50;99.90;;;;;;5051697;28;20029;-68
2021/12/24 12:04:31;;;;;;;24.13;5.60;;;22.40;99.90;;;;;;5051090;28;20035;-68
2021/12/24 12:07:17;;;;;;;16.35;4.82;;;22.50;99.90;;;;;;5051558;28;20091;-67
2021/12/24 12:09:46;;;;;;;16.95;4.68;;;22.50;99.90;;;;;;5051755;28;20409;-68
2021/12/24 12:12:16;;;;;;;23.25;5.35;;;22.50;99.90;;;;;;5051642;28;20385;-68
2021/12/24 12:14:44;;;;;;;20.52;4.85;;;22.50;99.90;;;;;;5051443;28;20036;-68
2021/12/24 12:17:24;;;;;;;16.20;4.05;;;22.50;99.90;;;;;;5052033;28;20065;-67
2021/12/24 12:20:00;;;;;;;21.98;4.88;;;22.50;99.90;;;;;;5054966;28;20023;-68
2021/12/24 12:25:10;;;;;;;17.70;4.97;;;22.50;99.90;;;;;;5055475;28;20044;-68
2021/12/24 12:27:41;;;;;;;18.77;5.60;;;22.50;99.90;;;;;;5044737;28;20058;-69
2021/12/24 12:30:31;;;;;;;19.45;4.13;;;22.50;99.90;;;;;;5035946;28;20431;-68
2021/12/24 12:33:09;;;;;;;18.80;4.80;;;22.50;99.90;;;;;;5055416;28;20049;-69
2021/12/24 12:35:43;;;;;;;20.85;4.90;;;22.50;99.90;;;;;;5055138;28;20047;-68
2021/12/24 12:38:33;;;;;;;25.58;5.82;;;22.50;99.90;;;;;;5055227;28;20031;-68
2021/12/24 12:41:37;;;;;;;21.00;5.05;;;22.50;99.90;;;;;;5055078;28;20067;-68
2021/12/24 12:44:11;;;;;;;19.73;5.18;;;22.50;99.90;;;;;;5053893;28;20385;-68
2021/12/24 12:46:41;;;;;;;17.10;5.05;;;22.50;99.90;;;;;;5055076;28;20076;-69
2021/12/24 12:49:17;;;;;;;20.33;5.38;;;22.50;99.90;;;;;;5054924;28;20028;-68
2021/12/24 12:52:03;;;;;;;20.17;4.65;;;22.50;99.90;;;;;;5039335;28;20478;-68
2021/12/24 12:54:34;;;;;;;25.60;4.97;;;22.50;99.90;;;;;;5034912;28;20478;-68
2021/12/24 12:57:19;;;;;;;20.45;4.93;;;22.50;99.90;;;;;;5033686;28;20401;-68
2021/12/24 13:00:07;;;;;;;22.63;5.25;;;22.50;99.90;;;;;;5034945;28;20113;-68
2021/12/24 13:05:29;;;;;;;13.73;4.20;;;22.40;99.90;;;;;;5051822;28;20044;-68
2021/12/24 13:08:08;;;;;;;18.88;4.68;;;22.40;99.90;;;;;;5054550;28;20028;-68
2021/12/24 13:10:36;;;;;;;15.60;4.00;;;22.40;99.90;;;;;;5053006;28;20024;-68
2021/12/24 13:13:06;;;;;;;18.30;4.40;;;22.40;99.90;;;;;;5054310;28;20059;-69
2021/12/24 13:15:45;;;;;;;15.20;4.82;;;22.40;99.90;;;;;;5053245;28;20028;-69
2021/12/24 13:18:27;;;;;;;22.83;5.40;;;22.40;99.90;;;;;;5052315;28;20071;-68
2021/12/24 13:23:47;;;;;;;18.13;4.55;;;22.30;99.90;;;;;;5051025;28;20069;-68
2021/12/24 13:26:19;;;;;;;17.75;4.57;;;22.30;99.90;;;;;;5047736;28;20563;-68
2021/12/24 13:28:57;;;;;;;15.55;5.18;;;22.30;99.90;;;;;;5054158;28;20557;-69
2021/12/24 13:31:26;;;;;;;14.38;4.65;;;22.20;99.90;;;;;;5054110;28;20025;-68
2021/12/24 13:33:53;;;;;;;24.60;5.07;;;22.20;99.90;;;;;;5053999;28;20495;-68
2021/12/24 13:36:27;;;;;;;19.75;5.38;;;22.10;99.90;;;;;;5053955;28;20037;-69
2021/12/24 13:39:06;;;;;;;14.35;3.83;;;22.10;99.90;;;;;;5053938;28;20473;-68
2021/12/24 13:41:33;;;;;;;17.35;4.40;;;22.10;99.90;;;;;;5053021;28;20029;-68
2021/12/24 13:44:00;;;;;;;17.10;5.40;;;22.10;99.90;;;;;;5054079;28;20025;-68
2021/12/24 13:46:32;;;;;;;18.48;4.75;;;22.00;99.90;;;;;;5052533;28;20061;-68
2021/12/24 13:54:34;;;;;;;19.58;4.75;;;22.00;99.90;;;;;;5054231;28;20055;-69
2021/12/24 13:57:07;;;;;;;17.77;4.95;;;22.00;99.90;;;;;;5053431;28;20036;-66
2021/12/24 13:59:34;;;;;;;28.00;6.28;;;22.00;99.90;;;;;;5053728;28;20096;-66
2021/12/24 14:02:08;;;;;;;20.13;5.13;;;21.90;99.90;;;;;;5053749;28;20033;-67
2021/12/24 14:04:36;;;;;;;22.25;4.50;;;21.90;99.90;;;;;;5053432;28;20013;-67
2021/12/24 14:07:03;;;;;;;23.42;6.20;;;21.90;99.90;;;;;;5052286;28;20455;-67
2021/12/24 14:09:33;;;;;;;18.13;4.72;;;21.80;99.90;;;;;;5053832;28;20108;-67
2021/12/24 14:12:05;;;;;;;17.45;4.97;;;21.80;99.90;;;;;;5043012;28;20025;-68
2021/12/24 14:15:07;;;;;;;15.77;4.22;;;21.80;99.90;;;;;;5052523;28;20013;-68
2021/12/24 14:18:06;;;;;;;24.92;5.88;;;21.80;99.90;;;;;;5032113;28;20619;-68
2021/12/24 14:21:44;;;;;;;17.55;5.05;;;21.80;99.90;;;;;;5054636;28;20050;-68
2021/12/24 14:23:36;;;;;;;19.13;5.38;;;21.80;99.90;;;;;;5073225;28;20047;-67
2021/12/24 14:26:04;;;;;;;16.08;5.00;;;21.80;99.90;;;;;;5059375;28;20096;-68
2021/12/24 14:28:32;;;;;;;17.73;5.07;;;21.70;99.90;;;;;;5051782;28;20033;-68
2021/12/24 14:31:05;;;;;;;22.00;6.10;;;21.70;99.90;;;;;;5051539;28;20025;-68
2021/12/24 14:33:36;;;;;;;20.27;5.65;;;21.70;99.90;;;;;;5052942;28;20032;-67
2021/12/24 14:36:08;;;;;;;15.98;5.05;;;21.70;99.90;;;;;;5051653;28;20091;-68
2021/12/24 14:38:35;;;;;;;18.63;4.85;;;21.60;99.90;;;;;;5051636;28;20078;-68
2021/12/24 14:41:02;;;;;;;17.33;5.53;;;21.70;99.90;;;;;;5052119;28;20039;-67
2021/12/24 14:43:34;;;;;;;15.05;4.28;;;21.60;99.90;;;;;;5051638;28;20021;-68
2021/12/24 14:46:08;;;;;;;15.70;5.45;;;21.60;99.90;;;;;;5052666;28;20021;-67
2021/12/24 14:48:36;;;;;;;17.75;6.00;;;21.60;99.90;;;;;;5036161;28;20017;-68
2021/12/24 14:51:09;;;;;;;23.48;5.68;;;21.60;99.90;;;;;;5052593;28;20112;-68
2021/12/24 14:53:38;;;;;;;21.10;7.10;;;21.60;99.90;;;;;;5052716;28;20025;-68
2021/12/24 14:56:08;;;;;;;21.77;5.85;;;21.50;99.90;;;;;;5051284;28;20120;-67
2021/12/24 14:58:50;;;;;;;19.95;5.75;;;21.50;99.90;;;;;;5052737;28;20029;-68